Time;durP1;ratioP1;P1;durP2;ratioP2;P2;SDS_P1;SDS_P2;PMS_P1;PMS_P2;Temp;Humidity;BMP_temperature;BMP_pressure;BME280_temperature;BME280_humidity;BME280_pressure;Samples;Min_cycle;Max_cycle;Signal;HPM_P1;HPM_P2
2023/03/14 00:01:23;;;;;;;101.90;63.97;;;128.00;2252.80;;;;;;5034144;28;20087;-79
2023/03/14 00:03:50;;;;;;;71.70;43.65;;;128.10;2252.80;;;;;;5031612;28;20025;-78
2023/03/14 00:06:16;;;;;;;59.08;34.83;;;103.20;2227.20;;;;;;5032812;28;20056;-79
2023/03/14 00:08:43;;;;;;;53.35;31.77;;;128.00;2252.80;;;;;;5032330;28;20022;-79
2023/03/14 00:11:11;;;;;;;55.13;36.40;;;103.20;2227.20;;;;;;5032314;28;20030;-78
2023/03/14 00:13:38;;;;;;;52.63;34.67;;;103.30;2227.20;;;;;;5032423;28;20025;-77
2023/03/14 00:16:10;;;;;;;48.88;31.65;;;103.30;2227.20;;;;;;5032462;28;20026;-76
2023/03/14 00:18:36;;;;;;;45.17;28.33;;;128.00;2252.80;;;;;;5033368;28;20026;-79
2023/03/14 00:21:03;;;;;;;115.90;54.95;;;103.30;2227.20;;;;;;5032493;28;20030;-76
2023/03/14 00:23:30;;;;;;;128.70;66.68;;;103.30;2227.20;;;;;;5032192;28;20025;-78
2023/03/14 00:26:07;;;;;;;110.38;56.70;;;103.20;2227.20;;;;;;5033098;28;20037;-77
2023/03/14 00:28:33;;;;;;;100.97;52.95;;;103.20;2227.20;;;;;;5030721;28;20389;-76
2023/03/14 00:31:02;;;;;;;81.15;46.22;;;103.20;2227.20;;;;;;5065084;28;20034;-76
2023/03/14 00:33:27;;;;;;;92.20;51.63;;;103.30;2227.20;;;;;;5064349;28;20175;-76
2023/03/14 00:35:59;;;;;;;128.50;66.57;;;103.20;2227.20;;;;;;5033379;28;20060;-77
2023/03/14 00:38:25;;;;;;;140.35;69.05;;;103.20;2227.20;;;;;;5065799;28;20426;-75
2023/03/14 00:40:52;;;;;;;153.65;81.10;;;128.00;2252.80;;;;;;5069536;28;20412;-74
2023/03/14 00:43:18;;;;;;;140.25;78.15;;;128.00;2252.80;;;;;;5068646;28;20033;-76
2023/03/14 00:45:44;;;;;;;129.68;75.00;;;103.20;2227.20;;;;;;5075496;28;20033;-75
2023/03/14 00:48:10;;;;;;;155.50;86.55;;;128.00;2252.80;;;;;;5057411;28;20466;-76
2023/03/14 00:50:36;;;;;;;119.93;66.28;;;128.20;2252.80;;;;;;5055455;28;20029;-78
2023/03/14 00:53:01;;;;;;;85.60;48.53;;;128.10;2252.80;;;;;;5055944;28;20885;-75
2023/03/14 00:55:27;;;;;;;63.00;36.63;;;102.90;2227.20;;;;;;5056242;28;20021;-76
2023/03/14 00:57:53;;;;;;;62.50;36.15;;;102.60;2227.20;;;;;;5055881;28;20025;-76
2023/03/14 01:00:19;;;;;;;53.83;33.25;;;102.60;2227.20;;;;;;5055892;28;20388;-75
2023/03/14 01:02:44;;;;;;;70.63;41.03;;;102.90;2227.20;;;;;;5055974;28;20036;-77
2023/03/14 01:05:10;;;;;;;67.65;42.67;;;103.00;2227.20;;;;;;5055744;28;20043;-75
2023/03/14 01:07:37;;;;;;;69.35;41.55;;;102.90;2227.20;;;;;;5056474;28;20027;-78
2023/03/14 01:10:04;;;;;;;57.92;32.38;;;103.00;2227.20;;;;;;5055552;28;20049;-78
2023/03/14 01:12:30;;;;;;;49.33;32.20;;;102.90;2227.20;;;;;;5055425;28;20028;-75
2023/03/14 01:14:56;;;;;;;47.67;31.08;;;103.00;2227.20;;;;;;5055190;28;20040;-77
2023/03/14 01:17:22;;;;;;;58.25;32.97;;;103.00;2227.20;;;;;;5055134;28;20029;-76
2023/03/14 01:19:48;;;;;;;49.72;31.85;;;102.80;2227.20;;;;;;5055011;28;20029;-77
2023/03/14 01:22:13;;;;;;;64.97;37.67;;;103.00;2227.20;;;;;;5055235;28;20025;-76
2023/03/14 01:24:39;;;;;;;77.80;43.00;;;103.00;2227.20;;;;;;5055452;28;20119;-78
2023/03/14 01:27:05;;;;;;;88.00;48.22;;;103.00;2227.20;;;;;;5054231;28;20025;-75
2023/03/14 01:29:31;;;;;;;93.43;51.10;;;103.10;2227.20;;;;;;5035495;28;20029;-77
2023/03/14 01:31:56;;;;;;;104.88;56.22;;;103.00;2227.20;;;;;;5067831;28;20028;-77
2023/03/14 01:34:22;;;;;;;148.88;70.57;;;103.00;2227.20;;;;;;5035964;28;20508;-75
2023/03/14 01:36:48;;;;;;;76.32;44.40;;;103.00;2227.20;;;;;;5034549;28;20069;-76
2023/03/14 01:39:14;;;;;;;80.70;46.30;;;103.00;2227.20;;;;;;5067895;28;20060;-74
2023/03/14 01:41:40;;;;;;;72.05;41.90;;;103.00;2227.20;;;;;;5068443;28;20044;-76
2023/03/14 01:44:12;;;;;;;57.92;32.97;;;102.90;2227.20;;;;;;5067257;28;20057;-77
2023/03/14 01:46:45;;;;;;;57.67;32.25;;;102.90;2227.20;;;;;;5068651;28;20452;-78
2023/03/14 01:49:31;;;;;;;;;;;103.20;2227.20;;;;;;5036349;28;20034;-79
2023/03/14 01:52:03;;;;;;;53.08;31.63;;;102.70;2227.20;;;;;;5034976;28;19909;-78
2023/03/14 01:54:41;;;;;;;56.20;34.05;;;102.80;2227.20;;;;;;5068059;28;20036;-79
2023/03/14 01:57:15;;;;;;;59.30;36.72;;;102.70;2227.20;;;;;;5068237;28;20120;-80
2023/03/14 01:59:47;;;;;;;53.08;32.38;;;102.60;2227.20;;;;;;5034463;28;20034;-78
2023/03/14 02:02:15;;;;;;;62.30;37.25;;;102.60;2227.20;;;;;;5067943;28;20034;-77
2023/03/14 02:04:41;;;;;;;62.13;38.10;;;102.60;2227.20;;;;;;5067404;28;20047;-80
2023/03/14 02:07:45;;;;;;;50.65;32.58;;;77.70;2227.20;;;;;;5068157;28;20116;-79
2023/03/14 02:10:11;;;;;;;41.55;28.27;;;77.70;2227.20;;;;;;5030868;28;20046;-79
2023/03/14 02:12:38;;;;;;;48.95;27.33;;;102.50;2227.20;;;;;;5068301;28;20029;-78
2023/03/14 02:15:04;;;;;;;47.60;29.75;;;77.40;2227.20;;;;;;5067027;28;20044;-77
2023/03/14 02:17:30;;;;;;;51.10;30.95;;;102.40;2227.20;;;;;;5067628;28;20124;-78
2023/03/14 02:20:23;;;;;;;66.63;36.15;;;102.60;2227.20;;;;;;5035681;28;20064;-80
2023/03/14 02:22:49;;;;;;;82.78;43.90;;;102.70;2227.20;;;;;;5067556;28;20057;-79
2023/03/14 02:25:33;;;;;;;71.05;42.38;;;102.60;2227.20;;;;;;5035499;28;20060;-78
2023/03/14 02:28:00;;;;;;;53.10;32.50;;;102.50;2227.20;;;;;;5035653;28;20033;-77
2023/03/14 02:30:30;;;;;;;43.95;28.90;;;77.70;2227.20;;;;;;5034394;28;20021;-80
2023/03/14 02:33:09;;;;;;;49.97;32.70;;;102.50;2227.20;;;;;;5067643;28;20029;-78
2023/03/14 02:36:07;;;;;;;53.78;34.25;;;102.50;2227.20;;;;;;5034330;28;20533;-79
2023/03/14 02:38:52;;;;;;;66.85;40.30;;;102.50;2227.20;;;;;;5033411;28;20129;-79
2023/03/14 02:41:19;;;;;;;95.65;54.72;;;77.70;2227.20;;;;;;5033784;28;20041;-81
2023/03/14 02:43:44;;;;;;;99.57;56.30;;;102.40;2227.20;;;;;;5067528;28;20049;-78
2023/03/14 02:46:13;;;;;;;109.90;61.33;;;102.40;2227.20;;;;;;5067425;28;20144;-79
2023/03/14 02:49:03;;;;;;;98.32;52.20;;;102.50;2227.20;;;;;;5067552;28;20021;-80
2023/03/14 02:51:29;;;;;;;118.03;61.40;;;102.60;2227.20;;;;;;5029873;28;20080;-77
2023/03/14 02:53:55;;;;;;;117.28;67.45;;;102.40;2227.20;;;;;;5033536;28;20052;-79
2023/03/14 02:56:21;;;;;;;94.40;50.55;;;102.50;2227.20;;;;;;5033213;28;20457;-80
2023/03/14 02:58:47;;;;;;;67.57;40.08;;;102.80;2227.20;;;;;;5033640;28;20035;-77
2023/03/14 03:01:12;;;;;;;67.22;37.28;;;102.80;2227.20;;;;;;5034592;28;20034;-79
2023/03/14 03:03:38;;;;;;;66.65;35.90;;;102.80;2227.20;;;;;;5033596;28;20033;-79
2023/03/14 03:06:04;;;;;;;48.97;28.58;;;102.80;2227.20;;;;;;5033650;28;20025;-81
2023/03/14 03:08:31;;;;;;;39.45;25.08;;;102.40;2227.20;;;;;;5034276;28;20036;-78
2023/03/14 03:10:57;;;;;;;55.58;33.63;;;77.40;2227.20;;;;;;5033282;28;20040;-79
2023/03/14 03:13:23;;;;;;;58.67;30.63;;;77.10;2227.20;;;;;;5033089;28;20061;-79
2023/03/14 03:15:49;;;;;;;56.17;32.38;;;77.40;2227.20;;;;;;5033861;28;20057;-82
2023/03/14 03:18:15;;;;;;;66.60;33.95;;;77.60;2227.20;;;;;;5032897;28;20064;-79
2023/03/14 03:20:41;;;;;;;71.97;40.55;;;77.70;2227.20;;;;;;5033476;28;20437;-79
2023/03/14 03:23:06;;;;;;;96.25;48.65;;;77.60;2227.20;;;;;;5034501;28;20117;-79
2023/03/14 03:25:33;;;;;;;103.75;47.95;;;102.40;2227.20;;;;;;5033552;28;20108;-78
2023/03/14 03:27:59;;;;;;;83.53;46.63;;;102.50;2227.20;;;;;;5033416;28;20049;-79
2023/03/14 03:30:25;;;;;;;78.82;44.78;;;102.60;2227.20;;;;;;5049970;28;20049;-76
2023/03/14 03:32:51;;;;;;;93.80;50.70;;;102.60;2227.20;;;;;;5034075;28;20504;-78
2023/03/14 03:35:16;;;;;;;76.63;43.53;;;102.60;2227.20;;;;;;5032524;28;20025;-79
2023/03/14 03:37:42;;;;;;;137.50;67.70;;;102.50;2227.20;;;;;;5033252;28;20068;-78
2023/03/14 03:40:09;;;;;;;110.90;57.50;;;102.50;2227.20;;;;;;5033164;28;20465;-79
2023/03/14 03:42:35;;;;;;;80.93;43.33;;;77.70;2227.20;;;;;;5031974;28;20029;-79
2023/03/14 03:45:01;;;;;;;59.80;33.85;;;77.70;2227.20;;;;;;5032224;28;20028;-77
2023/03/14 03:47:27;;;;;;;47.28;29.42;;;77.70;2227.20;;;;;;5033936;28;20028;-78
2023/03/14 03:49:53;;;;;;;53.72;34.78;;;77.30;2227.20;;;;;;5032853;28;20021;-79
2023/03/14 03:52:20;;;;;;;53.90;34.65;;;77.30;2227.20;;;;;;5032175;28;20025;-81
2023/03/14 03:54:46;;;;;;;63.42;38.25;;;77.40;2227.20;;;;;;5032902;28;20052;-78
2023/03/14 03:57:12;;;;;;;62.03;38.30;;;77.70;2227.20;;;;;;5033015;28;20052;-80
2023/03/14 03:59:39;;;;;;;69.55;39.42;;;77.70;2227.20;;;;;;5032842;28;20480;-78
2023/03/14 04:02:05;;;;;;;70.13;37.83;;;77.50;2227.20;;;;;;5032789;28;20525;-80
2023/03/14 04:04:31;;;;;;;63.25;36.15;;;77.40;2227.20;;;;;;5032848;28;20116;-80
2023/03/14 04:06:57;;;;;;;52.45;31.00;;;77.60;2227.20;;;;;;5032818;28;20115;-78
2023/03/14 04:09:22;;;;;;;48.58;26.77;;;77.50;2227.20;;;;;;5032331;28;20049;-81
2023/03/14 04:11:48;;;;;;;43.60;27.52;;;77.40;2227.20;;;;;;5033945;28;20083;-77
2023/03/14 04:14:14;;;;;;;53.90;33.10;;;77.50;2227.20;;;;;;5031808;28;20057;-75
2023/03/14 04:16:40;;;;;;;47.97;29.52;;;77.50;2227.20;;;;;;5032484;28;20030;-80
2023/03/14 04:19:05;;;;;;;53.00;29.33;;;77.40;2227.20;;;;;;5033897;28;20096;-78
2023/03/14 04:21:31;;;;;;;44.60;28.98;;;77.40;2227.20;;;;;;5032718;28;20057;-81
2023/03/14 04:23:57;;;;;;;45.65;27.08;;;77.20;2227.20;;;;;;5033796;28;20068;-78
2023/03/14 04:26:23;;;;;;;58.40;31.38;;;76.90;2227.20;;;;;;5032597;28;20036;-80
2023/03/14 04:28:48;;;;;;;40.47;26.67;;;77.20;2227.20;;;;;;5032412;28;20029;-81
2023/03/14 04:31:18;;;;;;;45.05;28.02;;;77.30;2227.20;;;;;;5032571;28;20026;-79
2023/03/14 04:33:44;;;;;;;44.42;27.85;;;77.10;2227.20;;;;;;5032936;28;20100;-79
2023/03/14 04:36:10;;;;;;;50.03;31.02;;;77.10;2227.20;;;;;;5032614;28;20029;-80
2023/03/14 04:38:36;;;;;;;50.88;30.08;;;76.80;2227.20;;;;;;5032338;28;20029;-79
2023/03/14 04:41:02;;;;;;;50.00;30.23;;;51.80;2227.20;;;;;;5034478;28;20528;-82
2023/03/14 04:43:28;;;;;;;45.72;27.10;;;76.80;2227.20;;;;;;5057793;28;20382;-76
2023/03/14 04:45:54;;;;;;;44.08;27.17;;;52.10;2227.20;;;;;;5057426;28;20033;-79
2023/03/14 04:48:21;;;;;;;54.97;29.35;;;76.90;2227.20;;;;;;5056690;28;20009;-80
2023/03/14 04:50:47;;;;;;;49.72;27.77;;;77.10;2227.20;;;;;;5067019;28;20025;-81
2023/03/14 04:53:13;;;;;;;50.25;26.65;;;52.10;2227.20;;;;;;5078055;28;20017;-76
2023/03/14 04:55:39;;;;;;;45.22;28.08;;;76.80;2227.20;;;;;;5065065;28;20032;-79
2023/03/14 04:58:05;;;;;;;38.55;24.58;;;51.90;2227.20;;;;;;5052257;28;20074;-78
2023/03/14 05:00:31;;;;;;;42.65;25.25;;;76.80;2227.20;;;;;;5052815;28;20028;-76
2023/03/14 05:02:57;;;;;;;43.60;25.52;;;76.80;2227.20;;;;;;5052464;28;20384;-80
2023/03/14 05:05:23;;;;;;;40.92;24.52;;;52.00;2227.20;;;;;;5052253;28;20025;-80
2023/03/14 05:07:48;;;;;;;43.92;29.02;;;76.90;2227.20;;;;;;5052486;28;20028;-81
2023/03/14 05:10:15;;;;;;;40.58;25.17;;;76.90;2227.20;;;;;;5052387;28;20049;-79
2023/03/14 05:12:41;;;;;;;35.97;23.88;;;76.90;2227.20;;;;;;5052566;28;20492;-78
2023/03/14 05:15:07;;;;;;;45.08;27.60;;;52.00;2227.20;;;;;;5052719;28;20030;-78
2023/03/14 05:17:33;;;;;;;36.42;23.95;;;52.10;2227.20;;;;;;5051974;28;20024;-80
2023/03/14 05:19:59;;;;;;;40.95;22.15;;;52.00;2227.20;;;;;;5051948;28;20116;-78
2023/03/14 05:22:25;;;;;;;42.22;25.45;;;76.80;2227.20;;;;;;5051894;28;20121;-79
2023/03/14 05:24:51;;;;;;;41.00;26.13;;;52.10;2227.20;;;;;;5052475;28;20047;-79
2023/03/14 05:27:16;;;;;;;47.97;28.88;;;52.10;2227.20;;;;;;5055501;28;20029;-77
2023/03/14 05:29:42;;;;;;;51.80;31.17;;;76.80;2227.20;;;;;;5056626;28;20025;-78
2023/03/14 05:32:08;;;;;;;46.58;28.73;;;52.00;2227.20;;;;;;5055498;28;20057;-77
2023/03/14 05:34:34;;;;;;;53.38;30.60;;;51.80;2227.20;;;;;;5055292;28;20120;-78
2023/03/14 05:36:59;;;;;;;55.90;31.65;;;52.00;2227.20;;;;;;5055430;28;20033;-79
2023/03/14 05:39:25;;;;;;;58.30;32.80;;;76.90;2227.20;;;;;;5055498;28;20021;-82
2023/03/14 05:41:51;;;;;;;62.40;37.25;;;77.10;2227.20;;;;;;5055495;28;20031;-79
2023/03/14 05:44:17;;;;;;;71.80;45.67;;;77.30;2227.20;;;;;;5055456;28;20025;-80
2023/03/14 05:46:42;;;;;;;79.65;48.40;;;77.10;2227.20;;;;;;5054919;28;20029;-81
2023/03/14 05:49:08;;;;;;;76.72;49.28;;;77.30;2227.20;;;;;;5055166;28;20438;-78
2023/03/14 05:51:34;;;;;;;81.90;55.60;;;77.50;2227.20;;;;;;5055063;28;20029;-79
2023/03/14 05:54:00;;;;;;;85.93;55.60;;;77.50;2227.20;;;;;;5055032;28;20037;-79
2023/03/14 05:56:25;;;;;;;90.88;56.38;;;77.60;2227.20;;;;;;5055125;28;20074;-78
2023/03/14 05:58:51;;;;;;;74.07;49.45;;;77.30;2227.20;;;;;;5054735;28;20112;-79
2023/03/14 06:01:17;;;;;;;68.05;42.78;;;77.40;2227.20;;;;;;5054850;28;20039;-80
2023/03/14 06:03:42;;;;;;;64.82;38.60;;;77.40;2227.20;;;;;;5054717;28;20380;-78
2023/03/14 06:06:08;;;;;;;64.57;37.20;;;77.60;2227.20;;;;;;5055834;28;20032;-78
2023/03/14 06:08:34;;;;;;;56.38;36.95;;;77.40;2227.20;;;;;;5054363;28;20461;-81
2023/03/14 06:11:02;;;;;;;66.45;39.00;;;77.40;2227.20;;;;;;5056461;28;20036;-80
2023/03/14 06:13:28;;;;;;;109.70;63.30;;;77.40;2227.20;;;;;;5054718;28;20416;-79
2023/03/14 06:15:54;;;;;;;122.53;72.10;;;77.30;2227.20;;;;;;5055186;28;20029;-81
2023/03/14 06:18:20;;;;;;;101.22;63.92;;;77.30;2227.20;;;;;;5053777;28;20060;-80
2023/03/14 06:20:45;;;;;;;163.43;74.43;;;77.60;2227.20;;;;;;5054613;28;20053;-82
2023/03/14 06:23:11;;;;;;;91.22;49.75;;;77.70;2227.20;;;;;;5054423;28;20029;-80
2023/03/14 06:25:37;;;;;;;63.40;38.45;;;102.50;2227.20;;;;;;5054711;28;20056;-79
2023/03/14 06:28:03;;;;;;;61.75;38.40;;;102.70;2227.20;;;;;;5045501;28;20033;-79
2023/03/14 06:30:29;;;;;;;74.70;48.97;;;102.90;2227.20;;;;;;5034011;28;20021;-80
2023/03/14 06:32:55;;;;;;;59.85;38.15;;;103.00;2227.20;;;;;;5033416;28;20045;-81
2023/03/14 06:35:21;;;;;;;68.03;42.85;;;102.90;2227.20;;;;;;5034462;28;20116;-77
2023/03/14 06:37:47;;;;;;;65.38;41.65;;;102.80;2227.20;;;;;;5033729;28;20032;-77
2023/03/14 06:40:17;;;;;;;67.90;41.65;;;103.00;2227.20;;;;;;5034329;28;20029;-80
2023/03/14 06:42:44;;;;;;;60.85;39.17;;;102.80;2227.20;;;;;;5034124;28;20469;-78
2023/03/14 06:45:10;;;;;;;66.90;47.53;;;103.00;2227.20;;;;;;5035678;28;20026;-80
2023/03/14 06:47:37;;;;;;;71.13;44.55;;;103.30;2227.20;;;;;;5034112;28;20382;-79
2023/03/14 06:50:04;;;;;;;70.05;45.72;;;103.30;2227.20;;;;;;5033588;28;20026;-77
2023/03/14 06:52:30;;;;;;;76.18;47.63;;;128.00;2252.80;;;;;;5034943;28;20033;-79
2023/03/14 06:54:56;;;;;;;76.55;48.17;;;128.20;2252.80;;;;;;5034017;28;20040;-78
2023/03/14 06:57:21;;;;;;;76.60;50.55;;;128.20;2252.80;;;;;;5033702;28;20099;-79
2023/03/14 06:59:47;;;;;;;91.97;56.38;;;128.40;2252.80;;;;;;5033832;28;20075;-80
2023/03/14 07:02:13;;;;;;;95.03;57.60;;;128.40;2252.80;;;;;;5033758;28;20536;-79
2023/03/14 07:04:39;;;;;;;126.35;72.50;;;128.50;2252.80;;;;;;5033561;28;20028;-79
2023/03/14 07:07:05;;;;;;;114.18;72.35;;;128.50;2252.80;;;;;;5033229;28;20108;-78
2023/03/14 07:09:31;;;;;;;105.40;65.72;;;128.30;2252.80;;;;;;5033479;28;20076;-78
2023/03/14 07:11:57;;;;;;;108.72;68.85;;;128.50;2252.80;;;;;;5033531;28;20093;-78
2023/03/14 07:14:23;;;;;;;112.72;71.65;;;128.60;2252.80;;;;;;5033598;28;20037;-78
2023/03/14 07:16:49;;;;;;;89.32;60.42;;;128.60;2252.80;;;;;;5034892;28;20362;-79
2023/03/14 07:19:14;;;;;;;83.50;51.70;;;128.60;2252.80;;;;;;5033467;28;20116;-78
2023/03/14 07:21:40;;;;;;;79.45;48.53;;;128.70;2252.80;;;;;;5033570;28;20044;-80
2023/03/14 07:24:06;;;;;;;78.40;49.13;;;128.90;2252.80;;;;;;5033449;28;20022;-79
2023/03/14 07:26:32;;;;;;;69.10;43.90;;;128.90;2252.80;;;;;;5033175;28;20025;-79
2023/03/14 07:28:57;;;;;;;60.33;39.90;;;153.60;2252.80;;;;;;5034690;28;20036;-77
2023/03/14 07:31:24;;;;;;;61.65;40.63;;;153.80;2252.80;;;;;;5033004;28;20037;-79
2023/03/14 07:33:49;;;;;;;70.00;44.40;;;153.90;2252.80;;;;;;5033178;28;20235;-80
2023/03/14 07:36:15;;;;;;;55.75;36.58;;;154.10;2252.80;;;;;;5032384;28;20032;-78
2023/03/14 07:38:41;;;;;;;51.00;33.05;;;154.30;2252.80;;;;;;5066200;28;20021;-81
2023/03/14 07:41:07;;;;;;;48.90;31.60;;;154.50;2252.80;;;;;;5033237;28;20080;-78
2023/03/14 07:43:33;;;;;;;39.78;28.20;;;179.20;2252.80;;;;;;5032961;28;20139;-79
2023/03/14 07:45:59;;;;;;;41.90;26.80;;;179.30;2252.80;;;;;;5032664;28;20051;-78
2023/03/14 07:48:26;;;;;;;40.00;27.70;;;179.40;2252.80;;;;;;5032125;28;20073;-78
2023/03/14 07:50:53;;;;;;;49.13;29.02;;;179.50;2252.80;;;;;;5032892;28;20488;-79
2023/03/14 07:53:20;;;;;;;41.38;28.35;;;179.60;2252.80;;;;;;5032780;28;20034;-79
2023/03/14 07:55:46;;;;;;;47.15;31.92;;;179.60;2252.80;;;;;;5032995;28;20461;-78
2023/03/14 07:58:12;;;;;;;51.17;32.95;;;179.70;2252.80;;;;;;5033473;28;20030;-80
2023/03/14 08:00:38;;;;;;;43.15;28.65;;;179.80;2252.80;;;;;;5032464;28;20022;-77
2023/03/14 08:03:04;;;;;;;41.90;29.77;;;179.90;2252.80;;;;;;5032640;28;20076;-77
2023/03/14 08:05:29;;;;;;;49.70;32.13;;;180.10;2252.80;;;;;;5032501;28;20083;-79
2023/03/14 08:07:55;;;;;;;48.88;30.45;;;204.80;2252.80;;;;;;5032231;28;20053;-77
2023/03/14 08:10:24;;;;;;;34.67;23.65;;;205.00;2252.80;;;;;;5032183;28;20048;-80
2023/03/14 08:12:58;;;;;;;35.72;24.05;;;205.10;2252.80;;;;;;5032156;28;20065;-81
2023/03/14 08:15:24;;;;;;;25.63;18.98;;;;;;;;;;5033619;28;20025;-81
2023/03/14 08:17:51;;;;;;;28.13;17.45;;;205.40;2252.80;;;;;;5065680;28;20025;-79
2023/03/14 08:20:26;;;;;;;20.65;14.80;;;205.60;2252.80;;;;;;5032480;28;20116;-79
2023/03/14 08:22:51;;;;;;;26.02;15.65;;;205.70;2252.80;;;;;;5032776;28;20040;-80
2023/03/14 08:25:17;;;;;;;30.58;19.35;;;230.50;2252.80;;;;;;5032210;28;20030;-79
2023/03/14 08:27:43;;;;;;;27.45;17.10;;;230.60;2252.80;;;;;;5031770;28;20033;-81
2023/03/14 08:30:11;;;;;;;26.17;17.42;;;230.90;2252.80;;;;;;5031855;28;20377;-79
2023/03/14 08:32:38;;;;;;;23.63;16.13;;;231.00;2252.80;;;;;;5032167;28;20029;-79
2023/03/14 08:35:05;;;;;;;33.45;22.65;;;231.10;2252.80;;;;;;5032262;28;20037;-82
2023/03/14 08:37:35;;;;;;;26.45;17.05;;;231.10;2252.80;;;;;;5032185;28;20112;-79
2023/03/14 08:40:04;;;;;;;17.23;12.05;;;231.30;2252.80;;;;;;5031853;28;20040;-78
2023/03/14 08:42:30;;;;;;;17.50;11.80;;;256.00;2252.80;;;;;;5053900;28;20024;-79
2023/03/14 08:44:56;;;;;;;19.40;13.15;;;256.10;2252.80;;;;;;5064885;28;20028;-75
2023/03/14 08:47:21;;;;;;;19.27;12.48;;;256.20;2252.80;;;;;;5063300;28;20028;-77
2023/03/14 08:49:47;;;;;;;21.08;14.30;;;256.30;2252.80;;;;;;5056446;28;20025;-79
2023/03/14 08:52:15;;;;;;;21.60;14.38;;;;;;;;;;5066998;28;20135;-78
2023/03/14 08:54:43;;;;;;;25.75;17.42;;;256.70;2201.60;;;;;;5056856;28;20634;-76
2023/03/14 08:57:08;;;;;;;21.27;14.48;;;281.60;2227.20;;;;;;5059822;28;20491;-76
2023/03/14 08:59:34;;;;;;;17.83;11.23;;;281.70;2252.80;;;;;;5058555;28;20119;-75
2023/03/14 09:02:03;;;;;;;20.23;12.23;;;281.90;2176.00;;;;;;5056899;28;20115;-76
2023/03/14 09:04:29;;;;;;;18.92;11.30;;;282.00;2201.60;;;;;;5070843;28;20017;-76
2023/03/14 09:06:55;;;;;;;17.35;11.43;;;282.30;2124.80;;;;;;5063451;28;20029;-75
2023/03/14 09:09:22;;;;;;;19.33;10.75;;;307.20;2150.40;;;;;;5064991;28;20057;-75
2023/03/14 09:11:47;;;;;;;21.92;12.45;;;307.50;2124.80;;;;;;5071852;28;20495;-75
2023/03/14 09:14:13;;;;;;;14.05;8.70;;;307.70;2099.20;;;;;;5058451;28;20029;-76
2023/03/14 09:16:39;;;;;;;15.57;9.68;;;308.00;2073.60;;;;;;5070477;28;20025;-76
2023/03/14 09:19:05;;;;;;;17.92;9.18;;;332.80;2073.60;;;;;;5064689;28;20024;-76
2023/03/14 09:21:31;;;;;;;21.15;10.20;;;332.80;2073.60;;;;;;5061692;28;20033;-75
2023/03/14 09:23:57;;;;;;;24.90;13.57;;;333.10;2022.40;;;;;;5071298;28;20074;-76
2023/03/14 09:26:22;;;;;;;20.55;10.65;;;333.20;2022.40;;;;;;5058837;28;20047;-75
2023/03/14 09:28:48;;;;;;;18.38;9.20;;;333.20;1996.80;;;;;;5069097;28;20032;-76
2023/03/14 09:31:14;;;;;;;21.35;11.73;;;333.30;1996.80;;;;;;5062576;28;20108;-76
2023/03/14 09:33:40;;;;;;;14.30;9.18;;;333.40;1971.20;;;;;;5055085;28;20064;-75
2023/03/14 09:36:07;;;;;;;16.45;9.73;;;333.50;1971.20;;;;;;5071245;28;20119;-75
2023/03/14 09:38:33;;;;;;;15.90;9.70;;;333.60;1971.20;;;;;;5060998;28;20074;-74
2023/03/14 09:41:02;;;;;;;17.15;9.35;;;333.70;1945.60;;;;;;5067651;28;20033;-75
2023/03/14 09:43:34;;;;;;;14.35;8.00;;;358.40;1945.60;;;;;;5067348;28;20028;-76
2023/03/14 09:46:02;;;;;;;14.60;7.53;;;358.40;1920.00;;;;;;5058007;28;20033;-75
2023/03/14 09:48:32;;;;;;;14.68;7.15;;;358.50;1945.60;;;;;;5071147;28;20078;-75
2023/03/14 09:51:02;;;;;;;12.23;7.18;;;358.50;1894.40;;;;;;5064345;28;20039;-75
2023/03/14 09:53:39;;;;;;;11.95;6.72;;;358.60;1920.00;;;;;;5076016;28;20029;-77
2023/03/14 09:56:17;;;;;;;12.98;6.55;;;358.80;1894.40;;;;;;5059441;28;20036;-75
2023/03/14 09:58:48;;;;;;;15.80;8.93;;;358.80;2073.60;;;;;;5074625;28;20380;-75
2023/03/14 10:01:18;;;;;;;12.45;6.60;;;359.00;1868.80;;;;;;5063669;28;20033;-75
2023/03/14 10:03:46;;;;;;;14.95;7.88;;;359.20;1868.80;;;;;;5070301;28;20423;-75
2023/03/14 10:06:13;;;;;;;9.40;6.28;;;359.20;1868.80;;;;;;5058801;28;20484;-74
2023/03/14 10:08:43;;;;;;;11.88;7.07;;;359.30;1868.80;;;;;;5069726;28;20475;-75
2023/03/14 10:11:15;;;;;;;13.60;8.68;;;384.00;1868.80;;;;;;5064686;28;20102;-75
2023/03/14 10:14:14;;;;;;;14.02;7.22;;;;;;;;;;5059642;28;20039;-75
2023/03/14 10:16:44;;;;;;;14.25;7.18;;;;;;;;;;5037296;28;20029;-75
2023/03/14 10:19:11;;;;;;;10.27;6.07;;;;;;;;;;5063701;28;20032;-75
2023/03/14 10:21:57;;;;;;;9.82;6.53;;;;;;;;;;5060501;28;20346;-75
2023/03/14 10:24:29;;;;;;;13.30;8.30;;;;;;;;;;5041825;28;20044;-75
2023/03/14 10:27:03;;;;;;;14.48;9.40;;;;;;;;;;5064344;28;20116;-75
2023/03/14 10:29:30;;;;;;;12.18;8.52;;;;;;;;;;5066490;28;20518;-74
2023/03/14 10:32:00;;;;;;;15.82;10.20;;;;;;;;;;5058289;28;20120;-76
2023/03/14 10:34:34;;;;;;;16.63;9.02;;;;;;;;;;5069515;28;20028;-74
2023/03/14 10:37:23;;;;;;;16.48;9.05;;;410.20;1766.40;;;;;;5062579;28;20031;-75
2023/03/14 10:39:54;;;;;;;11.80;7.00;;;409.90;1792.00;;;;;;5058180;28;20460;-74
2023/03/14 10:42:34;;;;;;;11.75;5.93;;;409.90;1817.60;;;;;;5069962;28;20496;-76
2023/03/14 10:45:07;;;;;;;9.85;5.90;;;409.90;1766.40;;;;;;5061719;28;20428;-74
2023/03/14 10:47:33;;;;;;;16.73;9.02;;;410.00;1689.60;;;;;;5060240;28;20025;-74
2023/03/14 10:50:23;;;;;;;8.43;6.07;;;410.30;1715.20;;;;;;5069780;28;20089;-75
2023/03/14 10:52:50;;;;;;;8.38;5.28;;;435.20;1638.40;;;;;;5060832;28;20024;-73
2023/03/14 10:55:16;;;;;;;8.65;5.35;;;;;;;;;;5061969;28;20393;-74
2023/03/14 10:57:44;;;;;;;11.43;6.57;;;;;;;;;;5068133;28;20571;-74
2023/03/14 11:00:16;;;;;;;6.68;4.57;;;;;;;;;;5058132;28;20021;-76
2023/03/14 11:02:48;;;;;;;9.70;5.72;;;435.90;1587.20;;;;;;5066709;28;20044;-74
2023/03/14 11:05:19;;;;;;;6.07;3.92;;;435.90;1587.20;;;;;;5064873;28;20029;-74
2023/03/14 11:07:46;;;;;;;10.77;6.53;;;435.90;1587.20;;;;;;5058042;28;20028;-75
2023/03/14 11:10:11;;;;;;;10.43;5.10;;;460.80;1587.20;;;;;;5070354;28;20059;-73
2023/03/14 11:13:02;;;;;;;13.93;6.32;;;460.80;1587.20;;;;;;5058713;28;20025;-75
2023/03/14 11:15:33;;;;;;;13.75;6.63;;;;;;;;;;5060364;28;20056;-74
2023/03/14 11:18:08;;;;;;;16.20;7.95;;;;;;;;;;5053301;28;20110;-76
2023/03/14 11:20:34;;;;;;;6.97;4.47;;;;;;;;;;5068648;28;20056;-76
2023/03/14 11:23:08;;;;;;;10.27;4.60;;;;;;;;;;5062533;28;20024;-75
2023/03/14 11:25:46;;;;;;;6.80;4.32;;;;;;;;;;5060352;28;20449;-75
2023/03/14 11:28:23;;;;;;;7.85;4.45;;;;;;;;;;5068733;28;20124;-74
2023/03/14 11:30:54;;;;;;;9.10;5.10;;;;;;;;;;5059864;28;20029;-75
2023/03/14 11:33:26;;;;;;;9.60;5.43;;;;;;;;;;5060817;28;20541;-74
2023/03/14 11:35:52;;;;;;;;;;;;;;;;;;5069261;28;20056;-75
2023/03/14 11:38:30;;;;;;;10.88;6.40;;;;;;;;;;5057323;28;20365;-78
2023/03/14 11:40:57;;;;;;;12.68;7.53;;;;;;;;;;5064246;28;20025;-74
2023/03/14 11:43:30;;;;;;;12.10;7.57;;;;;;;;;;5064577;28;20028;-76
2023/03/14 11:46:01;;;;;;;19.77;11.82;;;;;;;;;;5057331;28;20109;-75
2023/03/14 11:48:46;;;;;;;16.85;9.80;;;;;;;;;;5068018;28;20021;-75
2023/03/14 11:51:21;;;;;;;18.70;11.18;;;;;;;;;;5060512;28;20035;-75
2023/03/14 11:53:53;;;;;;;17.05;10.95;;;;;;;;;;5058084;28;20025;-76
2023/03/14 11:56:25;;;;;;;11.70;8.07;;;;;;;;;;5071204;28;20028;-74
2023/03/14 11:58:56;;;;;;;12.85;8.30;;;;;;;;;;5057923;28;20047;-78
2023/03/14 12:01:27;;;;;;;9.52;6.68;;;;;;;;;;5065599;28;20032;-77
2023/03/14 12:03:58;;;;;;;9.15;6.22;;;;;;;;;;5056543;28;20028;-77
2023/03/14 12:06:43;;;;;;;7.78;4.38;;;;;;;;;;5039409;28;20401;-78
2023/03/14 12:09:09;;;;;;;10.23;6.18;;;;;;;;;;5061218;28;20537;-79
2023/03/14 12:11:40;;;;;;;16.25;8.88;;;;;;;;;;5065540;28;20500;-78
2023/03/14 12:14:18;;;;;;;10.50;6.07;;;;;;;;;;5055527;28;20078;-78
2023/03/14 12:16:47;;;;;;;13.23;5.85;;;;;;;;;;5065278;28;20017;-80
2023/03/14 12:19:26;;;;;;;7.03;3.70;;;;;;;;;;5051870;28;20017;-76
2023/03/14 12:22:06;;;;;;;13.40;6.45;;;;;;;;;;5068157;28;20028;-79
2023/03/14 12:24:34;;;;;;;14.35;7.15;;;;;;;;;;5043487;28;20066;-78
2023/03/14 12:27:01;;;;;;;9.23;4.78;;;;;;;;;;5064253;28;20472;-75